Details for Aegean Airlines at LGAV




Go Back


Latest METAR
Local Time

LGAV 061650Z 02024KT 9999 SCT025 BKN070 10/04 Q1022 NOSIG
06/04/2020, 19:57:15

Description
Results
Aegean Airlines Logo
Number of Pilots based at LGAV
0 Pilots Based here
Number of Aegean Airlines Flights Departed from LGAV
7 Flights Departed
Number of Aegean Airlines Flights Arrived at LGAV
8 Flights Arrived
Number of Aegean Airlines Schedules Departing from LGAV
136 Schedules
Number of Aegean Airlines Schedules Arriving at LGAV
140 Schedules
Number of Aegean Airlines Schedules Departing from LGAV availible today
49 Schedules Today
Number of Aegean Airlines Schedules Arriving at LGAV availible today
54 Schedules Today
Average Landing Rate at LGAV
-155 fpm
Aegean Airlines Average Landing Rate at LGAV
-283 fpm
Total Fuel Purchased at LGAV by Aegean Airlines
41,712.81 kgs / 91,960.06 lbs

Pilots Based at LGAV


Pilot ID
Pilot Name
Pilot Rank
No. of Flights
No. of Flying Hours
There are no pilots assigned to this hub!   Will you be the first?